aviador You're here:

WSSL Decoded Metar

SINGAPORE in SINGAPORE
Report Time2017-11-24 20:00:00
UTC Time2017-11-24 20:30:40
Flight Rules vfr VFR
Wind360° at 06 kt
W.Decomp.*RWY 03: 5.2 kt HW 3 kt LCW
Visibility9999 m
Phenomena:N/A
Clouds:Few 016 Hf
Scattered 150 Hf
Broken 300 Hf
Expected CloudBase > 1,200 ft AGL from Temp-Dew spread
Ceiling30,000 ft
Temp26°C (ISA +11)
Dew Point23°C (84% RH)
QNH1008 hPa
Density Alt1,867 ft
Elevation46 ft
Report Wrong Elevation
Raw Report
WSSL 242000Z 36006KT 9999 FEW016 SCT150 BKN300 26/23 Q1008 RMK
1330Z Q1009=

Extra information for WSSL:More info

Metar Taf Metar & Taf Last 4 Metars F.Rules Stats Wind Profile Meteogram Temp Stats Airport Information Weather charts Add Link Nearby VenuesMetar ALERT Operation Metar Decoded Social comments